sensor_id;sensor_type;location;lat;lon;timestamp;temperature;humidity
9033;DHT22;4551;53.164;8.210;2023-07-29T00:00:58;19.50;99.90
9033;DHT22;4551;53.164;8.210;2023-07-29T00:03:27;19.50;99.90
9033;DHT22;4551;53.164;8.210;2023-07-29T00:05:58;19.50;99.90
9033;DHT22;4551;53.164;8.210;2023-07-29T00:08:26;19.50;99.90
9033;DHT22;4551;53.164;8.210;2023-07-29T00:10:54;19.50;99.90
9033;DHT22;4551;53.164;8.210;2023-07-29T00:13:22;19.40;99.90
9033;DHT22;4551;53.164;8.210;2023-07-29T00:15:52;19.40;99.90
9033;DHT22;4551;53.164;8.210;2023-07-29T00:18:21;19.40;99.90
9033;DHT22;4551;53.164;8.210;2023-07-29T00:20:49;19.40;99.90
9033;DHT22;4551;53.164;8.210;2023-07-29T00:23:18;19.40;99.90
9033;DHT22;4551;53.164;8.210;2023-07-29T00:25:46;19.40;99.90
9033;DHT22;4551;53.164;8.210;2023-07-29T00:28:15;19.40;99.90
9033;DHT22;4551;53.164;8.210;2023-07-29T00:30:45;19.30;99.90
9033;DHT22;4551;53.164;8.210;2023-07-29T00:33:13;19.30;99.90
9033;DHT22;4551;53.164;8.210;2023-07-29T00:35:41;19.30;99.90
9033;DHT22;4551;53.164;8.210;2023-07-29T00:38:09;19.30;99.90
9033;DHT22;4551;53.164;8.210;2023-07-29T00:40:38;19.30;99.90
9033;DHT22;4551;53.164;8.210;2023-07-29T00:43:06;19.20;99.90
9033;DHT22;4551;53.164;8.210;2023-07-29T00:45:34;19.20;99.90
9033;DHT22;4551;53.164;8.210;2023-07-29T00:48:02;19.20;99.90
9033;DHT22;4551;53.164;8.210;2023-07-29T00:50:31;19.20;99.90
9033;DHT22;4551;53.164;8.210;2023-07-29T00:53:00;19.20;99.90
9033;DHT22;4551;53.164;8.210;2023-07-29T00:55:28;19.20;99.90
9033;DHT22;4551;53.164;8.210;2023-07-29T00:57:57;19.20;99.90
9033;DHT22;4551;53.164;8.210;2023-07-29T01:00:25;19.20;99.90
9033;DHT22;4551;53.164;8.210;2023-07-29T01:02:53;19.10;99.90
9033;DHT22;4551;53.164;8.210;2023-07-29T01:05:22;19.10;99.90
9033;DHT22;4551;53.164;8.210;2023-07-29T01:07:54;19.10;99.90
9033;DHT22;4551;53.164;8.210;2023-07-29T01:10:29;19.10;99.90
9033;DHT22;4551;53.164;8.210;2023-07-29T01:13:01;19.00;99.90
9033;DHT22;4551;53.164;8.210;2023-07-29T01:15:31;19.00;99.90
9033;DHT22;4551;53.164;8.210;2023-07-29T01:18:02;19.00;99.90
9033;DHT22;4551;53.164;8.210;2023-07-29T01:20:32;18.90;99.90
9033;DHT22;4551;53.164;8.210;2023-07-29T01:23:01;18.90;99.90
9033;DHT22;4551;53.164;8.210;2023-07-29T01:25:30;18.90;99.90
9033;DHT22;4551;53.164;8.210;2023-07-29T01:27:58;18.90;99.90
9033;DHT22;4551;53.164;8.210;2023-07-29T01:30:29;18.80;99.90
9033;DHT22;4551;53.164;8.210;2023-07-29T01:32:59;18.80;99.90
9033;DHT22;4551;53.164;8.210;2023-07-29T01:35:31;18.80;99.90
9033;DHT22;4551;53.164;8.210;2023-07-29T01:38:01;18.80;99.90
9033;DHT22;4551;53.164;8.210;2023-07-29T01:40:32;18.70;99.90
9033;DHT22;4551;53.164;8.210;2023-07-29T01:43:01;18.70;99.90
9033;DHT22;4551;53.164;8.210;2023-07-29T01:45:29;18.60;99.90
9033;DHT22;4551;53.164;8.210;2023-07-29T01:47:58;18.60;99.90
9033;DHT22;4551;53.164;8.210;2023-07-29T01:50:26;18.60;99.90
9033;DHT22;4551;53.164;8.210;2023-07-29T01:52:54;18.60;99.90
9033;DHT22;4551;53.164;8.210;2023-07-29T01:55:22;18.60;99.90
9033;DHT22;4551;53.164;8.210;2023-07-29T01:57:52;18.50;99.90
9033;DHT22;4551;53.164;8.210;2023-07-29T02:00:20;18.50;99.90
9033;DHT22;4551;53.164;8.210;2023-07-29T02:02:49;18.50;99.90
9033;DHT22;4551;53.164;8.210;2023-07-29T02:05:17;18.50;99.90
9033;DHT22;4551;53.164;8.210;2023-07-29T02:07:45;18.50;99.90
9033;DHT22;4551;53.164;8.210;2023-07-29T02:10:13;18.50;99.90
9033;DHT22;4551;53.164;8.210;2023-07-29T02:12:41;18.50;99.90
9033;DHT22;4551;53.164;8.210;2023-07-29T02:15:11;18.40;99.90
9033;DHT22;4551;53.164;8.210;2023-07-29T02:17:40;18.40;99.90
9033;DHT22;4551;53.164;8.210;2023-07-29T02:20:09;18.40;99.90
9033;DHT22;4551;53.164;8.210;2023-07-29T02:22:37;18.40;99.90
9033;DHT22;4551;53.164;8.210;2023-07-29T02:25:05;18.40;99.90
9033;DHT22;4551;53.164;8.210;2023-07-29T02:27:33;18.40;99.90
9033;DHT22;4551;53.164;8.210;2023-07-29T02:30:02;18.40;99.90
9033;DHT22;4551;53.164;8.210;2023-07-29T02:32:31;18.30;99.90
9033;DHT22;4551;53.164;8.210;2023-07-29T02:34:59;18.30;99.90
9033;DHT22;4551;53.164;8.210;2023-07-29T02:37:27;18.30;99.90
9033;DHT22;4551;53.164;8.210;2023-07-29T02:39:55;18.30;99.90
9033;DHT22;4551;53.164;8.210;2023-07-29T02:42:23;18.30;99.90
9033;DHT22;4551;53.164;8.210;2023-07-29T02:44:51;18.30;99.90
9033;DHT22;4551;53.164;8.210;2023-07-29T02:47:19;18.30;99.90
9033;DHT22;4551;53.164;8.210;2023-07-29T02:49:49;18.30;99.90
9033;DHT22;4551;53.164;8.210;2023-07-29T02:52:17;18.30;99.90
9033;DHT22;4551;53.164;8.210;2023-07-29T02:54:45;18.30;99.90
9033;DHT22;4551;53.164;8.210;2023-07-29T02:57:13;18.30;99.90
9033;DHT22;4551;53.164;8.210;2023-07-29T02:59:41;18.20;99.90
9033;DHT22;4551;53.164;8.210;2023-07-29T03:02:09;18.20;99.90
9033;DHT22;4551;53.164;8.210;2023-07-29T03:04:37;18.20;99.90
9033;DHT22;4551;53.164;8.210;2023-07-29T03:07:07;18.10;99.90
9033;DHT22;4551;53.164;8.210;2023-07-29T03:09:35;18.10;99.90
9033;DHT22;4551;53.164;8.210;2023-07-29T03:12:04;18.10;99.90
9033;DHT22;4551;53.164;8.210;2023-07-29T03:14:32;18.10;99.90
9033;DHT22;4551;53.164;8.210;2023-07-29T03:17:02;18.10;99.90
9033;DHT22;4551;53.164;8.210;2023-07-29T03:19:30;18.10;99.90
9033;DHT22;4551;53.164;8.210;2023-07-29T03:21:58;18.10;99.90
9033;DHT22;4551;53.164;8.210;2023-07-29T03:24:28;18.10;99.90
9033;DHT22;4551;53.164;8.210;2023-07-29T03:26:56;18.10;99.90
9033;DHT22;4551;53.164;8.210;2023-07-29T03:29:24;18.00;99.90
9033;DHT22;4551;53.164;8.210;2023-07-29T03:31:52;18.00;99.90
9033;DHT22;4551;53.164;8.210;2023-07-29T03:34:21;18.00;99.90
9033;DHT22;4551;53.164;8.210;2023-07-29T03:36:49;18.00;99.90
9033;DHT22;4551;53.164;8.210;2023-07-29T03:39:18;18.00;99.90
9033;DHT22;4551;53.164;8.210;2023-07-29T03:41:47;18.00;99.90
9033;DHT22;4551;53.164;8.210;2023-07-29T03:44:16;18.00;99.90
9033;DHT22;4551;53.164;8.210;2023-07-29T03:46:45;18.00;99.90
9033;DHT22;4551;53.164;8.210;2023-07-29T03:49:13;18.00;99.90
9033;DHT22;4551;53.164;8.210;2023-07-29T03:51:41;18.00;99.90
9033;DHT22;4551;53.164;8.210;2023-07-29T03:54:09;18.00;99.90
9033;DHT22;4551;53.164;8.210;2023-07-29T03:56:37;18.00;99.90
9033;DHT22;4551;53.164;8.210;2023-07-29T03:59:07;18.00;99.90
9033;DHT22;4551;53.164;8.210;2023-07-29T04:01:35;18.00;99.90
9033;DHT22;4551;53.164;8.210;2023-07-29T04:04:03;18.00;99.90
9033;DHT22;4551;53.164;8.210;2023-07-29T04:06:31;18.00;99.90
9033;DHT22;4551;53.164;8.210;2023-07-29T04:09:00;18.00;99.90
9033;DHT22;4551;53.164;8.210;2023-07-29T04:11:28;18.10;99.90
9033;DHT22;4551;53.164;8.210;2023-07-29T04:13:56;18.10;99.90
9033;DHT22;4551;53.164;8.210;2023-07-29T04:16:26;18.10;99.90
9033;DHT22;4551;53.164;8.210;2023-07-29T04:18:55;18.10;99.90
9033;DHT22;4551;53.164;8.210;2023-07-29T04:21:23;18.10;99.90
9033;DHT22;4551;53.164;8.210;2023-07-29T04:23:51;18.10;99.90
9033;DHT22;4551;53.164;8.210;2023-07-29T04:26:19;18.10;99.90
9033;DHT22;4551;53.164;8.210;2023-07-29T04:28:47;18.10;99.90
9033;DHT22;4551;53.164;8.210;2023-07-29T04:31:15;18.10;99.90
9033;DHT22;4551;53.164;8.210;2023-07-29T04:33:45;18.10;99.90
9033;DHT22;4551;53.164;8.210;2023-07-29T04:36:13;18.10;99.90
9033;DHT22;4551;53.164;8.210;2023-07-29T04:38:41;18.10;99.90
9033;DHT22;4551;53.164;8.210;2023-07-29T04:41:09;18.10;99.90
9033;DHT22;4551;53.164;8.210;2023-07-29T04:43:37;18.10;99.90
9033;DHT22;4551;53.164;8.210;2023-07-29T04:46:06;18.10;99.90
9033;DHT22;4551;53.164;8.210;2023-07-29T04:48:34;18.10;99.90
9033;DHT22;4551;53.164;8.210;2023-07-29T04:51:04;18.10;99.90
9033;DHT22;4551;53.164;8.210;2023-07-29T04:53:32;18.10;99.90
9033;DHT22;4551;53.164;8.210;2023-07-29T04:56:07;18.10;99.90
9033;DHT22;4551;53.164;8.210;2023-07-29T04:58:35;18.10;99.90
9033;DHT22;4551;53.164;8.210;2023-07-29T05:01:03;18.10;99.90
9033;DHT22;4551;53.164;8.210;2023-07-29T05:03:32;18.10;99.90
9033;DHT22;4551;53.164;8.210;2023-07-29T05:06:00;18.10;99.90
9033;DHT22;4551;53.164;8.210;2023-07-29T05:08:29;18.20;99.90
9033;DHT22;4551;53.164;8.210;2023-07-29T05:10:57;18.10;99.90
9033;DHT22;4551;53.164;8.210;2023-07-29T05:13:26;18.20;99.90
9033;DHT22;4551;53.164;8.210;2023-07-29T05:15:54;18.20;99.90
9033;DHT22;4551;53.164;8.210;2023-07-29T05:18:23;18.20;99.90
9033;DHT22;4551;53.164;8.210;2023-07-29T05:20:51;18.20;99.90
9033;DHT22;4551;53.164;8.210;2023-07-29T05:23:19;18.10;99.90
9033;DHT22;4551;53.164;8.210;2023-07-29T05:25:49;18.20;99.90
9033;DHT22;4551;53.164;8.210;2023-07-29T05:28:17;18.20;99.90
9033;DHT22;4551;53.164;8.210;2023-07-29T05:30:45;18.20;99.90
9033;DHT22;4551;53.164;8.210;2023-07-29T05:33:13;18.20;99.90
9033;DHT22;4551;53.164;8.210;2023-07-29T05:35:41;18.20;99.90
9033;DHT22;4551;53.164;8.210;2023-07-29T05:38:09;18.20;99.90
9033;DHT22;4551;53.164;8.210;2023-07-29T05:40:37;18.20;99.90
9033;DHT22;4551;53.164;8.210;2023-07-29T05:43:07;18.20;99.90
9033;DHT22;4551;53.164;8.210;2023-07-29T05:45:35;18.20;99.90
9033;DHT22;4551;53.164;8.210;2023-07-29T05:48:03;18.20;99.90
9033;DHT22;4551;53.164;8.210;2023-07-29T05:50:31;18.20;99.90
9033;DHT22;4551;53.164;8.210;2023-07-29T05:52:59;18.20;99.90
9033;DHT22;4551;53.164;8.210;2023-07-29T05:55:27;18.20;99.90
9033;DHT22;4551;53.164;8.210;2023-07-29T05:57:55;18.20;99.90
9033;DHT22;4551;53.164;8.210;2023-07-29T06:00:25;18.20;99.90
9033;DHT22;4551;53.164;8.210;2023-07-29T06:02:53;18.20;99.90
9033;DHT22;4551;53.164;8.210;2023-07-29T06:05:22;18.30;99.90
9033;DHT22;4551;53.164;8.210;2023-07-29T06:07:50;18.30;99.90
9033;DHT22;4551;53.164;8.210;2023-07-29T06:10:18;18.30;99.90
9033;DHT22;4551;53.164;8.210;2023-07-29T06:12:47;18.30;99.90
9033;DHT22;4551;53.164;8.210;2023-07-29T06:15:15;18.30;99.90
9033;DHT22;4551;53.164;8.210;2023-07-29T06:17:44;18.30;99.90
9033;DHT22;4551;53.164;8.210;2023-07-29T06:20:13;18.30;99.90
9033;DHT22;4551;53.164;8.210;2023-07-29T06:22:41;18.30;99.90
9033;DHT22;4551;53.164;8.210;2023-07-29T06:25:09;18.30;99.90
9033;DHT22;4551;53.164;8.210;2023-07-29T06:27:40;18.30;99.90
9033;DHT22;4551;53.164;8.210;2023-07-29T06:30:08;18.30;99.90
9033;DHT22;4551;53.164;8.210;2023-07-29T06:32:36;18.30;99.90
9033;DHT22;4551;53.164;8.210;2023-07-29T06:35:06;18.30;99.90
9033;DHT22;4551;53.164;8.210;2023-07-29T06:37:34;18.30;99.90
9033;DHT22;4551;53.164;8.210;2023-07-29T06:40:03;18.40;99.90
9033;DHT22;4551;53.164;8.210;2023-07-29T06:42:31;18.40;99.90
9033;DHT22;4551;53.164;8.210;2023-07-29T06:44:59;18.40;99.90
9033;DHT22;4551;53.164;8.210;2023-07-29T06:47:27;18.30;99.90
9033;DHT22;4551;53.164;8.210;2023-07-29T06:49:55;18.40;99.90
9033;DHT22;4551;53.164;8.210;2023-07-29T06:52:25;18.40;99.90
9033;DHT22;4551;53.164;8.210;2023-07-29T06:54:53;18.40;99.90
9033;DHT22;4551;53.164;8.210;2023-07-29T06:57:21;18.40;99.90
9033;DHT22;4551;53.164;8.210;2023-07-29T06:59:49;18.40;99.90
9033;DHT22;4551;53.164;8.210;2023-07-29T07:02:17;18.50;99.90
9033;DHT22;4551;53.164;8.210;2023-07-29T07:04:45;18.50;99.90
9033;DHT22;4551;53.164;8.210;2023-07-29T07:07:13;18.40;99.90
9033;DHT22;4551;53.164;8.210;2023-07-29T07:09:42;18.50;99.90
9033;DHT22;4551;53.164;8.210;2023-07-29T07:12:10;18.50;99.90
9033;DHT22;4551;53.164;8.210;2023-07-29T07:14:38;18.50;99.90
9033;DHT22;4551;53.164;8.210;2023-07-29T07:17:07;18.50;99.90
9033;DHT22;4551;53.164;8.210;2023-07-29T07:19:39;18.50;99.90
9033;DHT22;4551;53.164;8.210;2023-07-29T07:22:07;18.50;99.90
9033;DHT22;4551;53.164;8.210;2023-07-29T07:24:35;18.50;99.90
9033;DHT22;4551;53.164;8.210;2023-07-29T07:27:05;18.50;99.90
9033;DHT22;4551;53.164;8.210;2023-07-29T07:29:33;18.60;99.90
9033;DHT22;4551;53.164;8.210;2023-07-29T07:32:01;18.60;99.90
9033;DHT22;4551;53.164;8.210;2023-07-29T07:34:29;18.60;99.90
9033;DHT22;4551;53.164;8.210;2023-07-29T07:36:57;18.60;99.90
9033;DHT22;4551;53.164;8.210;2023-07-29T07:39:25;18.60;99.90
9033;DHT22;4551;53.164;8.210;2023-07-29T07:41:53;18.60;99.90
9033;DHT22;4551;53.164;8.210;2023-07-29T07:44:23;18.70;99.90
9033;DHT22;4551;53.164;8.210;2023-07-29T07:46:53;18.70;99.90
9033;DHT22;4551;53.164;8.210;2023-07-29T07:49:21;18.80;99.90
9033;DHT22;4551;53.164;8.210;2023-07-29T07:51:49;18.80;99.90
9033;DHT22;4551;53.164;8.210;2023-07-29T07:54:17;18.80;99.90
9033;DHT22;4551;53.164;8.210;2023-07-29T07:56:45;18.80;99.90
9033;DHT22;4551;53.164;8.210;2023-07-29T07:59:13;18.80;99.90
9033;DHT22;4551;53.164;8.210;2023-07-29T08:01:45;18.80;99.90
9033;DHT22;4551;53.164;8.210;2023-07-29T08:04:13;18.80;99.90
9033;DHT22;4551;53.164;8.210;2023-07-29T08:06:41;18.80;99.90
9033;DHT22;4551;53.164;8.210;2023-07-29T08:09:09;18.80;99.90
9033;DHT22;4551;53.164;8.210;2023-07-29T08:11:38;18.90;99.90
9033;DHT22;4551;53.164;8.210;2023-07-29T08:14:06;18.90;99.90
9033;DHT22;4551;53.164;8.210;2023-07-29T08:16:34;18.90;99.90
9033;DHT22;4551;53.164;8.210;2023-07-29T08:19:04;18.90;99.90
9033;DHT22;4551;53.164;8.210;2023-07-29T08:21:32;18.90;99.90
9033;DHT22;4551;53.164;8.210;2023-07-29T08:24:01;19.00;99.90
9033;DHT22;4551;53.164;8.210;2023-07-29T08:26:30;19.00;99.90
9033;DHT22;4551;53.164;8.210;2023-07-29T08:28:58;19.00;99.90
9033;DHT22;4551;53.164;8.210;2023-07-29T08:31:26;19.10;99.90
9033;DHT22;4551;53.164;8.210;2023-07-29T08:33:54;19.10;99.90
9033;DHT22;4551;53.164;8.210;2023-07-29T08:36:23;19.10;99.90
9033;DHT22;4551;53.164;8.210;2023-07-29T08:38:51;19.20;99.90
9033;DHT22;4551;53.164;8.210;2023-07-29T08:41:21;19.10;99.90
9033;DHT22;4551;53.164;8.210;2023-07-29T08:43:53;19.10;99.90
9033;DHT22;4551;53.164;8.210;2023-07-29T08:46:22;19.10;99.90
9033;DHT22;4551;53.164;8.210;2023-07-29T08:48:51;19.10;99.90
9033;DHT22;4551;53.164;8.210;2023-07-29T08:51:19;19.10;99.90
9033;DHT22;4551;53.164;8.210;2023-07-29T08:53:48;19.10;99.90
9033;DHT22;4551;53.164;8.210;2023-07-29T08:56:16;19.20;99.90
9033;DHT22;4551;53.164;8.210;2023-07-29T08:58:45;19.20;99.90
9033;DHT22;4551;53.164;8.210;2023-07-29T09:01:13;19.30;99.90
9033;DHT22;4551;53.164;8.210;2023-07-29T09:03:42;19.30;99.90
9033;DHT22;4551;53.164;8.210;2023-07-29T09:06:10;19.30;99.90
9033;DHT22;4551;53.164;8.210;2023-07-29T09:08:38;19.40;99.90
9033;DHT22;4551;53.164;8.210;2023-07-29T09:11:08;19.40;99.90
9033;DHT22;4551;53.164;8.210;2023-07-29T09:13:36;19.40;99.90
9033;DHT22;4551;53.164;8.210;2023-07-29T09:16:04;19.50;99.90
9033;DHT22;4551;53.164;8.210;2023-07-29T09:18:32;19.60;99.90
9033;DHT22;4551;53.164;8.210;2023-07-29T09:21:00;19.60;99.90
9033;DHT22;4551;53.164;8.210;2023-07-29T09:23:32;19.70;99.90
9033;DHT22;4551;53.164;8.210;2023-07-29T09:26:07;19.70;99.90
9033;DHT22;4551;53.164;8.210;2023-07-29T09:28:36;19.80;99.90
9033;DHT22;4551;53.164;8.210;2023-07-29T09:31:05;19.80;99.90
9033;DHT22;4551;53.164;8.210;2023-07-29T09:33:34;19.80;99.90
9033;DHT22;4551;53.164;8.210;2023-07-29T09:36:04;19.80;99.90
9033;DHT22;4551;53.164;8.210;2023-07-29T09:38:36;19.80;99.90
9033;DHT22;4551;53.164;8.210;2023-07-29T09:41:05;19.80;99.90
9033;DHT22;4551;53.164;8.210;2023-07-29T09:43:34;19.80;99.90
9033;DHT22;4551;53.164;8.210;2023-07-29T09:46:03;19.80;99.90
9033;DHT22;4551;53.164;8.210;2023-07-29T09:48:32;19.90;99.90
9033;DHT22;4551;53.164;8.210;2023-07-29T09:51:09;19.90;99.90
9033;DHT22;4551;53.164;8.210;2023-07-29T09:53:39;20.00;99.90
9033;DHT22;4551;53.164;8.210;2023-07-29T09:56:07;20.00;99.90
9033;DHT22;4551;53.164;8.210;2023-07-29T09:58:37;20.10;99.90
9033;DHT22;4551;53.164;8.210;2023-07-29T10:01:05;20.10;99.90
9033;DHT22;4551;53.164;8.210;2023-07-29T10:03:34;20.20;99.90
9033;DHT22;4551;53.164;8.210;2023-07-29T10:06:04;20.20;99.90
9033;DHT22;4551;53.164;8.210;2023-07-29T10:08:32;20.30;99.90
9033;DHT22;4551;53.164;8.210;2023-07-29T10:11:02;20.30;99.90
9033;DHT22;4551;53.164;8.210;2023-07-29T10:13:30;20.30;99.90
9033;DHT22;4551;53.164;8.210;2023-07-29T10:16:00;20.30;99.90
9033;DHT22;4551;53.164;8.210;2023-07-29T10:18:29;20.30;99.90
9033;DHT22;4551;53.164;8.210;2023-07-29T10:20:59;20.50;99.90
9033;DHT22;4551;53.164;8.210;2023-07-29T10:23:28;20.50;99.90
9033;DHT22;4551;53.164;8.210;2023-07-29T10:25:59;20.50;99.90
9033;DHT22;4551;53.164;8.210;2023-07-29T10:28:30;20.70;99.90
9033;DHT22;4551;53.164;8.210;2023-07-29T10:31:00;20.70;99.90
9033;DHT22;4551;53.164;8.210;2023-07-29T10:33:28;20.80;99.90
9033;DHT22;4551;53.164;8.210;2023-07-29T10:35:58;20.90;99.90
9033;DHT22;4551;53.164;8.210;2023-07-29T10:38:26;20.90;99.90
9033;DHT22;4551;53.164;8.210;2023-07-29T10:40:54;20.90;99.90
9033;DHT22;4551;53.164;8.210;2023-07-29T10:43:24;20.90;99.90
9033;DHT22;4551;53.164;8.210;2023-07-29T10:45:52;20.80;99.90
9033;DHT22;4551;53.164;8.210;2023-07-29T10:48:43;20.80;99.90
9033;DHT22;4551;53.164;8.210;2023-07-29T10:51:25;20.80;99.90
9033;DHT22;4551;53.164;8.210;2023-07-29T10:53:54;20.80;99.90
9033;DHT22;4551;53.164;8.210;2023-07-29T10:56:26;20.80;99.90
9033;DHT22;4551;53.164;8.210;2023-07-29T10:58:55;20.80;99.90
9033;DHT22;4551;53.164;8.210;2023-07-29T11:01:26;20.80;99.90
9033;DHT22;4551;53.164;8.210;2023-07-29T11:09:41;20.70;99.90
9033;DHT22;4551;53.164;8.210;2023-07-29T11:14:53;20.70;99.90
9033;DHT22;4551;53.164;8.210;2023-07-29T11:17:21;20.70;99.90
9033;DHT22;4551;53.164;8.210;2023-07-29T11:19:49;20.60;99.90
9033;DHT22;4551;53.164;8.210;2023-07-29T11:22:17;20.70;99.90
9033;DHT22;4551;53.164;8.210;2023-07-29T11:24:47;20.70;99.90
9033;DHT22;4551;53.164;8.210;2023-07-29T11:27:15;20.80;99.90
9033;DHT22;4551;53.164;8.210;2023-07-29T11:29:43;20.80;99.90
9033;DHT22;4551;53.164;8.210;2023-07-29T11:32:11;20.80;99.90
9033;DHT22;4551;53.164;8.210;2023-07-29T11:34:40;20.80;99.90
9033;DHT22;4551;53.164;8.210;2023-07-29T11:37:10;20.90;99.90
9033;DHT22;4551;53.164;8.210;2023-07-29T11:39:39;20.90;99.90
9033;DHT22;4551;53.164;8.210;2023-07-29T11:42:11;21.00;99.90
9033;DHT22;4551;53.164;8.210;2023-07-29T11:44:39;21.10;99.90
9033;DHT22;4551;53.164;8.210;2023-07-29T11:47:08;21.20;99.90
9033;DHT22;4551;53.164;8.210;2023-07-29T11:49:37;21.20;99.90
9033;DHT22;4551;53.164;8.210;2023-07-29T11:52:06;21.30;99.90
9033;DHT22;4551;53.164;8.210;2023-07-29T11:54:34;21.30;99.90
9033;DHT22;4551;53.164;8.210;2023-07-29T11:57:03;21.40;99.90
9033;DHT22;4551;53.164;8.210;2023-07-29T11:59:33;21.60;99.90
9033;DHT22;4551;53.164;8.210;2023-07-29T12:02:01;21.60;99.90
9033;DHT22;4551;53.164;8.210;2023-07-29T12:04:30;21.80;99.90
9033;DHT22;4551;53.164;8.210;2023-07-29T12:06:58;21.90;99.90
9033;DHT22;4551;53.164;8.210;2023-07-29T12:09:27;22.00;99.90
9033;DHT22;4551;53.164;8.210;2023-07-29T12:11:55;22.10;99.90
9033;DHT22;4551;53.164;8.210;2023-07-29T12:14:25;22.20;99.90
9033;DHT22;4551;53.164;8.210;2023-07-29T12:16:54;22.30;99.90
9033;DHT22;4551;53.164;8.210;2023-07-29T12:19:23;22.30;99.90
9033;DHT22;4551;53.164;8.210;2023-07-29T12:21:51;22.50;99.90
9033;DHT22;4551;53.164;8.210;2023-07-29T12:24:22;22.60;99.90
9033;DHT22;4551;53.164;8.210;2023-07-29T12:26:50;22.60;99.90
9033;DHT22;4551;53.164;8.210;2023-07-29T12:29:19;22.60;99.90
9033;DHT22;4551;53.164;8.210;2023-07-29T12:31:47;22.60;99.90
9033;DHT22;4551;53.164;8.210;2023-07-29T12:34:19;22.60;99.90
9033;DHT22;4551;53.164;8.210;2023-07-29T12:36:48;22.70;99.90
9033;DHT22;4551;53.164;8.210;2023-07-29T12:39:17;22.70;99.90
9033;DHT22;4551;53.164;8.210;2023-07-29T12:41:45;22.70;99.90
9033;DHT22;4551;53.164;8.210;2023-07-29T12:44:13;22.70;99.90
9033;DHT22;4551;53.164;8.210;2023-07-29T12:46:42;22.70;99.90
9033;DHT22;4551;53.164;8.210;2023-07-29T12:49:10;22.70;99.90
9033;DHT22;4551;53.164;8.210;2023-07-29T12:51:40;22.80;99.90
9033;DHT22;4551;53.164;8.210;2023-07-29T12:54:08;22.90;99.90
9033;DHT22;4551;53.164;8.210;2023-07-29T12:56:36;23.00;99.90
9033;DHT22;4551;53.164;8.210;2023-07-29T12:59:05;23.10;99.90
9033;DHT22;4551;53.164;8.210;2023-07-29T13:01:34;23.20;99.90
9033;DHT22;4551;53.164;8.210;2023-07-29T13:04:02;23.30;99.90
9033;DHT22;4551;53.164;8.210;2023-07-29T13:06:30;23.40;99.90
9033;DHT22;4551;53.164;8.210;2023-07-29T13:09:00;23.50;99.90
9033;DHT22;4551;53.164;8.210;2023-07-29T13:11:30;23.50;99.90
9033;DHT22;4551;53.164;8.210;2023-07-29T13:13:59;23.60;99.90
9033;DHT22;4551;53.164;8.210;2023-07-29T13:16:27;23.70;99.90
9033;DHT22;4551;53.164;8.210;2023-07-29T13:18:55;23.80;99.90
9033;DHT22;4551;53.164;8.210;2023-07-29T13:21:23;23.90;99.90
9033;DHT22;4551;53.164;8.210;2023-07-29T13:23:52;23.90;99.90
9033;DHT22;4551;53.164;8.210;2023-07-29T13:26:21;23.90;99.90
9033;DHT22;4551;53.164;8.210;2023-07-29T13:28:49;24.10;99.90
9033;DHT22;4551;53.164;8.210;2023-07-29T13:31:18;24.10;99.90
9033;DHT22;4551;53.164;8.210;2023-07-29T13:33:46;24.10;99.90
9033;DHT22;4551;53.164;8.210;2023-07-29T13:36:14;24.10;99.90
9033;DHT22;4551;53.164;8.210;2023-07-29T13:38:42;24.00;99.90
9033;DHT22;4551;53.164;8.210;2023-07-29T13:41:10;23.90;99.90
9033;DHT22;4551;53.164;8.210;2023-07-29T13:43:40;23.50;99.90
9033;DHT22;4551;53.164;8.210;2023-07-29T13:46:08;23.20;99.90
9033;DHT22;4551;53.164;8.210;2023-07-29T13:48:36;23.00;99.90
9033;DHT22;4551;53.164;8.210;2023-07-29T13:51:04;22.80;99.90
9033;DHT22;4551;53.164;8.210;2023-07-29T13:53:32;22.70;99.90
9033;DHT22;4551;53.164;8.210;2023-07-29T13:56:00;22.60;99.90
9033;DHT22;4551;53.164;8.210;2023-07-29T13:58:28;22.40;99.90
9033;DHT22;4551;53.164;8.210;2023-07-29T14:00:57;22.20;99.90
9033;DHT22;4551;53.164;8.210;2023-07-29T14:03:26;22.30;99.90
9033;DHT22;4551;53.164;8.210;2023-07-29T14:05:54;22.20;99.90
9033;DHT22;4551;53.164;8.210;2023-07-29T14:08:22;22.20;99.90
9033;DHT22;4551;53.164;8.210;2023-07-29T14:10:50;22.20;99.90
9033;DHT22;4551;53.164;8.210;2023-07-29T14:13:18;22.30;99.90
9033;DHT22;4551;53.164;8.210;2023-07-29T14:15:46;22.30;99.90
9033;DHT22;4551;53.164;8.210;2023-07-29T14:18:16;22.30;99.90
9033;DHT22;4551;53.164;8.210;2023-07-29T14:20:44;22.40;99.90
9033;DHT22;4551;53.164;8.210;2023-07-29T14:23:12;22.40;99.90
9033;DHT22;4551;53.164;8.210;2023-07-29T14:25:40;22.60;99.90
9033;DHT22;4551;53.164;8.210;2023-07-29T14:28:08;22.80;99.90
9033;DHT22;4551;53.164;8.210;2023-07-29T14:30:36;23.00;99.90
9033;DHT22;4551;53.164;8.210;2023-07-29T14:33:04;23.40;99.90
9033;DHT22;4551;53.164;8.210;2023-07-29T14:35:35;23.70;99.90
9033;DHT22;4551;53.164;8.210;2023-07-29T14:38:03;24.10;99.90
9033;DHT22;4551;53.164;8.210;2023-07-29T14:40:31;24.50;99.90
9033;DHT22;4551;53.164;8.210;2023-07-29T14:42:59;24.50;99.90
9033;DHT22;4551;53.164;8.210;2023-07-29T14:45:27;24.50;99.90
9033;DHT22;4551;53.164;8.210;2023-07-29T14:47:55;24.30;99.90
9033;DHT22;4551;53.164;8.210;2023-07-29T14:50:23;24.10;99.90
9033;DHT22;4551;53.164;8.210;2023-07-29T14:52:52;24.10;99.90
9033;DHT22;4551;53.164;8.210;2023-07-29T14:55:20;24.40;99.90
9033;DHT22;4551;53.164;8.210;2023-07-29T14:57:48;24.90;99.90
9033;DHT22;4551;53.164;8.210;2023-07-29T15:00:17;25.30;99.90
9033;DHT22;4551;53.164;8.210;2023-07-29T15:02:45;25.40;99.90
9033;DHT22;4551;53.164;8.210;2023-07-29T15:05:13;25.30;99.90
9033;DHT22;4551;53.164;8.210;2023-07-29T15:07:41;25.10;99.90
9033;DHT22;4551;53.164;8.210;2023-07-29T15:10:13;25.10;99.90
9033;DHT22;4551;53.164;8.210;2023-07-29T15:12:41;24.80;99.90
9033;DHT22;4551;53.164;8.210;2023-07-29T15:15:10;24.70;99.90
9033;DHT22;4551;53.164;8.210;2023-07-29T15:17:38;24.60;99.90
9033;DHT22;4551;53.164;8.210;2023-07-29T15:20:06;24.30;99.90
9033;DHT22;4551;53.164;8.210;2023-07-29T15:22:34;24.10;99.90
9033;DHT22;4551;53.164;8.210;2023-07-29T15:25:02;23.90;99.90
9033;DHT22;4551;53.164;8.210;2023-07-29T15:27:32;23.80;99.90
9033;DHT22;4551;53.164;8.210;2023-07-29T15:30:00;23.60;99.90
9033;DHT22;4551;53.164;8.210;2023-07-29T15:32:28;23.40;99.90
9033;DHT22;4551;53.164;8.210;2023-07-29T15:34:56;23.20;99.90
9033;DHT22;4551;53.164;8.210;2023-07-29T15:37:25;23.10;99.90
9033;DHT22;4551;53.164;8.210;2023-07-29T15:39:53;22.90;99.90
9033;DHT22;4551;53.164;8.210;2023-07-29T15:42:21;22.70;99.90
9033;DHT22;4551;53.164;8.210;2023-07-29T15:44:51;22.50;99.90
9033;DHT22;4551;53.164;8.210;2023-07-29T15:47:19;22.30;99.90
9033;DHT22;4551;53.164;8.210;2023-07-29T15:49:47;22.10;99.90
9033;DHT22;4551;53.164;8.210;2023-07-29T15:52:15;21.70;99.90
9033;DHT22;4551;53.164;8.210;2023-07-29T15:54:43;21.60;99.90
9033;DHT22;4551;53.164;8.210;2023-07-29T15:57:11;21.50;99.90
9033;DHT22;4551;53.164;8.210;2023-07-29T15:59:39;21.30;99.90
9033;DHT22;4551;53.164;8.210;2023-07-29T16:02:08;21.20;99.90
9033;DHT22;4551;53.164;8.210;2023-07-29T16:04:36;21.10;99.90
9033;DHT22;4551;53.164;8.210;2023-07-29T16:07:05;21.20;99.90
9033;DHT22;4551;53.164;8.210;2023-07-29T16:09:33;21.50;99.90
9033;DHT22;4551;53.164;8.210;2023-07-29T16:12:01;21.90;99.90
9033;DHT22;4551;53.164;8.210;2023-07-29T16:14:29;22.30;99.90
9033;DHT22;4551;53.164;8.210;2023-07-29T16:16:58;22.40;99.90
9033;DHT22;4551;53.164;8.210;2023-07-29T16:19:27;22.70;99.90